sensor_id;sensor_type;location;lat;lon;timestamp;P1;durP1;ratioP1;P2;durP2;ratioP2
11439;SDS011;5776;51.814;4.510;2023-02-28T00:01:03;5.20;;;2.07;;
11439;SDS011;5776;51.814;4.510;2023-02-28T00:03:28;4.83;;;2.30;;
11439;SDS011;5776;51.814;4.510;2023-02-28T00:05:54;3.60;;;2.23;;
11439;SDS011;5776;51.814;4.510;2023-02-28T00:08:20;3.70;;;1.70;;
11439;SDS011;5776;51.814;4.510;2023-02-28T00:10:46;6.30;;;2.27;;
11439;SDS011;5776;51.814;4.510;2023-02-28T00:13:12;3.23;;;1.80;;
11439;SDS011;5776;51.814;4.510;2023-02-28T00:15:38;6.47;;;2.20;;
11439;SDS011;5776;51.814;4.510;2023-02-28T00:18:04;3.93;;;1.77;;
11439;SDS011;5776;51.814;4.510;2023-02-28T00:20:30;3.90;;;1.90;;
11439;SDS011;5776;51.814;4.510;2023-02-28T00:22:56;4.17;;;1.87;;
11439;SDS011;5776;51.814;4.510;2023-02-28T00:25:22;3.43;;;1.80;;
11439;SDS011;5776;51.814;4.510;2023-02-28T00:27:50;4.93;;;2.20;;
11439;SDS011;5776;51.814;4.510;2023-02-28T00:30:18;3.80;;;1.97;;
11439;SDS011;5776;51.814;4.510;2023-02-28T00:32:45;3.27;;;1.70;;
11439;SDS011;5776;51.814;4.510;2023-02-28T00:35:11;2.77;;;1.70;;
11439;SDS011;5776;51.814;4.510;2023-02-28T00:37:37;6.07;;;2.37;;
11439;SDS011;5776;51.814;4.510;2023-02-28T00:40:04;3.50;;;1.80;;
11439;SDS011;5776;51.814;4.510;2023-02-28T00:42:31;4.50;;;2.17;;
11439;SDS011;5776;51.814;4.510;2023-02-28T00:44:59;7.30;;;1.90;;
11439;SDS011;5776;51.814;4.510;2023-02-28T00:47:25;3.00;;;1.90;;
11439;SDS011;5776;51.814;4.510;2023-02-28T00:49:51;3.63;;;1.83;;
11439;SDS011;5776;51.814;4.510;2023-02-28T00:52:17;4.33;;;1.93;;
11439;SDS011;5776;51.814;4.510;2023-02-28T00:54:42;2.50;;;1.63;;
11439;SDS011;5776;51.814;4.510;2023-02-28T00:57:08;3.93;;;1.87;;
11439;SDS011;5776;51.814;4.510;2023-02-28T00:59:34;3.43;;;1.80;;
11439;SDS011;5776;51.814;4.510;2023-02-28T01:02:00;5.30;;;2.03;;
11439;SDS011;5776;51.814;4.510;2023-02-28T01:04:26;3.27;;;1.70;;
11439;SDS011;5776;51.814;4.510;2023-02-28T01:06:52;5.53;;;1.80;;
11439;SDS011;5776;51.814;4.510;2023-02-28T01:09:18;3.63;;;1.53;;
11439;SDS011;5776;51.814;4.510;2023-02-28T01:11:44;2.90;;;1.63;;
11439;SDS011;5776;51.814;4.510;2023-02-28T01:14:15;5.30;;;1.93;;
11439;SDS011;5776;51.814;4.510;2023-02-28T01:16:41;3.23;;;1.63;;
11439;SDS011;5776;51.814;4.510;2023-02-28T01:19:08;2.30;;;1.20;;
11439;SDS011;5776;51.814;4.510;2023-02-28T01:21:34;1.70;;;1.13;;
11439;SDS011;5776;51.814;4.510;2023-02-28T01:24:01;1.97;;;1.47;;
11439;SDS011;5776;51.814;4.510;2023-02-28T01:26:28;2.30;;;1.30;;
11439;SDS011;5776;51.814;4.510;2023-02-28T01:28:55;3.13;;;1.43;;
11439;SDS011;5776;51.814;4.510;2023-02-28T01:31:21;3.87;;;1.67;;
11439;SDS011;5776;51.814;4.510;2023-02-28T01:33:48;3.53;;;1.17;;
11439;SDS011;5776;51.814;4.510;2023-02-28T01:36:16;1.97;;;1.37;;
11439;SDS011;5776;51.814;4.510;2023-02-28T01:38:43;4.57;;;1.77;;
11439;SDS011;5776;51.814;4.510;2023-02-28T01:41:12;2.50;;;1.77;;
11439;SDS011;5776;51.814;4.510;2023-02-28T01:46:09;3.43;;;1.30;;
11439;SDS011;5776;51.814;4.510;2023-02-28T01:48:40;1.70;;;1.40;;
11439;SDS011;5776;51.814;4.510;2023-02-28T01:51:17;2.43;;;1.60;;
11439;SDS011;5776;51.814;4.510;2023-02-28T01:54:16;5.23;;;1.63;;
11439;SDS011;5776;51.814;4.510;2023-02-28T01:56:47;2.97;;;1.67;;
11439;SDS011;5776;51.814;4.510;2023-02-28T01:59:26;3.33;;;1.77;;
11439;SDS011;5776;51.814;4.510;2023-02-28T02:01:56;3.50;;;1.17;;
11439;SDS011;5776;51.814;4.510;2023-02-28T02:04:23;2.70;;;1.53;;
11439;SDS011;5776;51.814;4.510;2023-02-28T02:06:56;3.57;;;1.37;;
11439;SDS011;5776;51.814;4.510;2023-02-28T02:09:24;3.27;;;1.77;;
11439;SDS011;5776;51.814;4.510;2023-02-28T02:11:49;1.90;;;1.30;;
11439;SDS011;5776;51.814;4.510;2023-02-28T02:17:01;3.40;;;1.40;;
11439;SDS011;5776;51.814;4.510;2023-02-28T02:30:51;3.13;;;1.50;;
11439;SDS011;5776;51.814;4.510;2023-02-28T02:36:47;2.23;;;1.27;;
11439;SDS011;5776;51.814;4.510;2023-02-28T02:45:10;2.03;;;1.50;;
11439;SDS011;5776;51.814;4.510;2023-02-28T02:47:47;2.13;;;1.57;;
11439;SDS011;5776;51.814;4.510;2023-02-28T02:50:22;1.50;;;1.20;;
11439;SDS011;5776;51.814;4.510;2023-02-28T02:52:53;1.73;;;1.10;;
11439;SDS011;5776;51.814;4.510;2023-02-28T02:55:22;2.43;;;1.30;;
11439;SDS011;5776;51.814;4.510;2023-02-28T02:57:50;3.03;;;1.43;;
11439;SDS011;5776;51.814;4.510;2023-02-28T03:00:23;3.40;;;1.60;;
11439;SDS011;5776;51.814;4.510;2023-02-28T03:02:52;3.30;;;1.27;;
11439;SDS011;5776;51.814;4.510;2023-02-28T03:05:22;2.67;;;1.30;;
11439;SDS011;5776;51.814;4.510;2023-02-28T03:07:51;2.60;;;1.40;;
11439;SDS011;5776;51.814;4.510;2023-02-28T03:10:29;1.43;;;1.07;;
11439;SDS011;5776;51.814;4.510;2023-02-28T03:15:57;3.17;;;1.40;;
11439;SDS011;5776;51.814;4.510;2023-02-28T03:18:41;3.70;;;1.90;;
11439;SDS011;5776;51.814;4.510;2023-02-28T03:21:28;2.87;;;1.77;;
11439;SDS011;5776;51.814;4.510;2023-02-28T03:27:19;3.47;;;1.70;;
11439;SDS011;5776;51.814;4.510;2023-02-28T03:30:04;2.77;;;1.67;;
11439;SDS011;5776;51.814;4.510;2023-02-28T03:32:38;4.97;;;1.90;;
11439;SDS011;5776;51.814;4.510;2023-02-28T03:35:16;4.73;;;2.10;;
11439;SDS011;5776;51.814;4.510;2023-02-28T03:37:48;2.20;;;1.53;;
11439;SDS011;5776;51.814;4.510;2023-02-28T03:40:19;3.53;;;1.60;;
11439;SDS011;5776;51.814;4.510;2023-02-28T03:42:49;2.43;;;1.37;;
11439;SDS011;5776;51.814;4.510;2023-02-28T03:45:21;2.60;;;1.60;;
11439;SDS011;5776;51.814;4.510;2023-02-28T03:48:02;3.73;;;2.07;;
11439;SDS011;5776;51.814;4.510;2023-02-28T03:50:34;4.00;;;2.03;;
11439;SDS011;5776;51.814;4.510;2023-02-28T03:53:17;3.43;;;1.37;;
11439;SDS011;5776;51.814;4.510;2023-02-28T03:55:53;3.77;;;2.07;;
11439;SDS011;5776;51.814;4.510;2023-02-28T03:58:22;1.87;;;1.47;;
11439;SDS011;5776;51.814;4.510;2023-02-28T04:00:54;3.03;;;1.63;;
11439;SDS011;5776;51.814;4.510;2023-02-28T04:03:34;3.57;;;2.33;;
11439;SDS011;5776;51.814;4.510;2023-02-28T04:06:00;2.13;;;1.50;;
11439;SDS011;5776;51.814;4.510;2023-02-28T04:08:27;2.53;;;1.70;;
11439;SDS011;5776;51.814;4.510;2023-02-28T04:10:55;1.77;;;1.27;;
11439;SDS011;5776;51.814;4.510;2023-02-28T04:13:26;2.40;;;1.50;;
11439;SDS011;5776;51.814;4.510;2023-02-28T04:15:52;2.87;;;1.60;;
11439;SDS011;5776;51.814;4.510;2023-02-28T04:18:18;2.33;;;1.50;;
11439;SDS011;5776;51.814;4.510;2023-02-28T04:20:44;5.83;;;1.90;;
11439;SDS011;5776;51.814;4.510;2023-02-28T04:23:09;2.93;;;1.90;;
11439;SDS011;5776;51.814;4.510;2023-02-28T04:25:35;3.10;;;1.50;;
11439;SDS011;5776;51.814;4.510;2023-02-28T04:28:01;1.90;;;1.60;;
11439;SDS011;5776;51.814;4.510;2023-02-28T04:30:27;4.20;;;2.03;;
11439;SDS011;5776;51.814;4.510;2023-02-28T04:32:55;2.90;;;1.93;;
11439;SDS011;5776;51.814;4.510;2023-02-28T04:35:21;3.37;;;2.00;;
11439;SDS011;5776;51.814;4.510;2023-02-28T04:37:47;6.13;;;2.53;;
11439;SDS011;5776;51.814;4.510;2023-02-28T04:40:12;5.07;;;2.47;;
11439;SDS011;5776;51.814;4.510;2023-02-28T04:42:38;4.40;;;2.03;;
11439;SDS011;5776;51.814;4.510;2023-02-28T04:45:04;2.77;;;2.00;;
11439;SDS011;5776;51.814;4.510;2023-02-28T04:47:30;3.07;;;1.97;;
11439;SDS011;5776;51.814;4.510;2023-02-28T04:49:56;2.27;;;1.87;;
11439;SDS011;5776;51.814;4.510;2023-02-28T04:52:22;2.73;;;1.70;;
11439;SDS011;5776;51.814;4.510;2023-02-28T04:54:48;3.50;;;1.97;;
11439;SDS011;5776;51.814;4.510;2023-02-28T04:57:15;3.53;;;1.60;;
11439;SDS011;5776;51.814;4.510;2023-02-28T04:59:40;3.23;;;2.23;;
11439;SDS011;5776;51.814;4.510;2023-02-28T05:02:06;5.40;;;2.20;;
11439;SDS011;5776;51.814;4.510;2023-02-28T05:04:33;3.07;;;1.70;;
11439;SDS011;5776;51.814;4.510;2023-02-28T05:07:00;2.57;;;1.60;;
11439;SDS011;5776;51.814;4.510;2023-02-28T05:09:26;1.70;;;1.40;;
11439;SDS011;5776;51.814;4.510;2023-02-28T05:11:54;3.00;;;2.23;;
11439;SDS011;5776;51.814;4.510;2023-02-28T05:14:19;2.60;;;1.67;;
11439;SDS011;5776;51.814;4.510;2023-02-28T05:16:45;5.50;;;2.47;;
11439;SDS011;5776;51.814;4.510;2023-02-28T05:19:11;6.20;;;2.43;;
11439;SDS011;5776;51.814;4.510;2023-02-28T05:21:38;2.67;;;1.90;;
11439;SDS011;5776;51.814;4.510;2023-02-28T05:24:07;3.60;;;2.23;;
11439;SDS011;5776;51.814;4.510;2023-02-28T05:26:36;1.90;;;1.67;;
11439;SDS011;5776;51.814;4.510;2023-02-28T05:29:03;4.20;;;2.03;;
11439;SDS011;5776;51.814;4.510;2023-02-28T05:31:30;1.70;;;1.60;;
11439;SDS011;5776;51.814;4.510;2023-02-28T05:33:57;3.03;;;2.30;;
11439;SDS011;5776;51.814;4.510;2023-02-28T05:36:23;4.93;;;2.20;;
11439;SDS011;5776;51.814;4.510;2023-02-28T05:38:50;2.40;;;2.07;;
11439;SDS011;5776;51.814;4.510;2023-02-28T05:41:16;4.63;;;2.47;;
11439;SDS011;5776;51.814;4.510;2023-02-28T05:43:44;2.73;;;2.13;;
11439;SDS011;5776;51.814;4.510;2023-02-28T05:46:11;3.77;;;2.03;;
11439;SDS011;5776;51.814;4.510;2023-02-28T05:48:38;4.13;;;2.10;;
11439;SDS011;5776;51.814;4.510;2023-02-28T05:51:06;4.47;;;2.50;;
11439;SDS011;5776;51.814;4.510;2023-02-28T05:53:33;4.10;;;2.10;;
11439;SDS011;5776;51.814;4.510;2023-02-28T05:55:59;5.00;;;1.90;;
11439;SDS011;5776;51.814;4.510;2023-02-28T05:58:25;5.20;;;2.30;;
11439;SDS011;5776;51.814;4.510;2023-02-28T06:00:54;2.17;;;1.60;;
11439;SDS011;5776;51.814;4.510;2023-02-28T06:03:20;2.10;;;1.60;;
11439;SDS011;5776;51.814;4.510;2023-02-28T06:05:46;2.97;;;1.80;;
11439;SDS011;5776;51.814;4.510;2023-02-28T06:08:12;2.80;;;1.60;;
11439;SDS011;5776;51.814;4.510;2023-02-28T06:10:38;2.27;;;1.90;;
11439;SDS011;5776;51.814;4.510;2023-02-28T06:13:04;3.33;;;1.70;;
11439;SDS011;5776;51.814;4.510;2023-02-28T06:15:30;2.13;;;1.70;;
11439;SDS011;5776;51.814;4.510;2023-02-28T06:17:56;3.50;;;1.80;;
11439;SDS011;5776;51.814;4.510;2023-02-28T06:20:24;3.97;;;1.90;;
11439;SDS011;5776;51.814;4.510;2023-02-28T06:22:57;2.77;;;1.80;;
11439;SDS011;5776;51.814;4.510;2023-02-28T06:25:26;3.20;;;2.23;;
11439;SDS011;5776;51.814;4.510;2023-02-28T06:27:53;3.73;;;1.90;;
11439;SDS011;5776;51.814;4.510;2023-02-28T06:30:20;2.40;;;1.63;;
11439;SDS011;5776;51.814;4.510;2023-02-28T06:32:50;2.83;;;1.90;;
11439;SDS011;5776;51.814;4.510;2023-02-28T06:35:17;2.63;;;1.67;;
11439;SDS011;5776;51.814;4.510;2023-02-28T06:37:43;2.93;;;1.60;;
11439;SDS011;5776;51.814;4.510;2023-02-28T06:40:09;2.33;;;1.60;;
11439;SDS011;5776;51.814;4.510;2023-02-28T06:42:36;2.90;;;1.60;;
11439;SDS011;5776;51.814;4.510;2023-02-28T06:45:02;5.03;;;1.40;;
11439;SDS011;5776;51.814;4.510;2023-02-28T06:47:35;2.23;;;1.60;;
11439;SDS011;5776;51.814;4.510;2023-02-28T06:50:02;5.10;;;1.40;;
11439;SDS011;5776;51.814;4.510;2023-02-28T06:52:29;2.33;;;1.43;;
11439;SDS011;5776;51.814;4.510;2023-02-28T06:54:54;4.43;;;1.13;;
11439;SDS011;5776;51.814;4.510;2023-02-28T06:57:27;4.30;;;1.40;;
11439;SDS011;5776;51.814;4.510;2023-02-28T06:59:59;1.87;;;1.27;;
11439;SDS011;5776;51.814;4.510;2023-02-28T07:02:26;3.70;;;1.60;;
11439;SDS011;5776;51.814;4.510;2023-02-28T07:04:53;3.43;;;1.63;;
11439;SDS011;5776;51.814;4.510;2023-02-28T07:07:19;2.77;;;1.43;;
11439;SDS011;5776;51.814;4.510;2023-02-28T07:09:45;4.20;;;1.23;;
11439;SDS011;5776;51.814;4.510;2023-02-28T07:12:10;2.57;;;1.47;;
11439;SDS011;5776;51.814;4.510;2023-02-28T07:14:36;2.73;;;1.50;;
11439;SDS011;5776;51.814;4.510;2023-02-28T07:17:03;2.07;;;1.60;;
11439;SDS011;5776;51.814;4.510;2023-02-28T07:19:29;1.40;;;1.20;;
11439;SDS011;5776;51.814;4.510;2023-02-28T07:21:55;1.93;;;1.40;;
11439;SDS011;5776;51.814;4.510;2023-02-28T07:24:21;3.63;;;1.50;;
11439;SDS011;5776;51.814;4.510;2023-02-28T07:26:49;2.20;;;1.70;;
11439;SDS011;5776;51.814;4.510;2023-02-28T07:29:14;1.73;;;1.20;;
11439;SDS011;5776;51.814;4.510;2023-02-28T07:31:40;2.17;;;1.37;;
11439;SDS011;5776;51.814;4.510;2023-02-28T07:34:06;3.17;;;1.80;;
11439;SDS011;5776;51.814;4.510;2023-02-28T07:36:32;2.20;;;2.00;;
11439;SDS011;5776;51.814;4.510;2023-02-28T07:38:58;3.50;;;1.83;;
11439;SDS011;5776;51.814;4.510;2023-02-28T07:41:24;2.77;;;2.10;;
11439;SDS011;5776;51.814;4.510;2023-02-28T07:43:53;3.97;;;1.80;;
11439;SDS011;5776;51.814;4.510;2023-02-28T07:46:21;3.57;;;2.40;;
11439;SDS011;5776;51.814;4.510;2023-02-28T07:48:47;4.77;;;2.50;;
11439;SDS011;5776;51.814;4.510;2023-02-28T07:51:12;6.60;;;2.37;;
11439;SDS011;5776;51.814;4.510;2023-02-28T07:53:38;6.10;;;2.50;;
11439;SDS011;5776;51.814;4.510;2023-02-28T07:56:05;5.43;;;2.50;;
11439;SDS011;5776;51.814;4.510;2023-02-28T07:58:32;3.20;;;2.40;;
11439;SDS011;5776;51.814;4.510;2023-02-28T08:01:04;4.97;;;2.53;;
11439;SDS011;5776;51.814;4.510;2023-02-28T08:03:33;2.47;;;1.80;;
11439;SDS011;5776;51.814;4.510;2023-02-28T08:06:02;4.97;;;2.87;;
11439;SDS011;5776;51.814;4.510;2023-02-28T08:08:29;3.30;;;2.43;;
11439;SDS011;5776;51.814;4.510;2023-02-28T08:11:00;4.97;;;2.40;;
11439;SDS011;5776;51.814;4.510;2023-02-28T08:13:28;6.40;;;2.70;;
11439;SDS011;5776;51.814;4.510;2023-02-28T08:15:55;5.77;;;2.53;;
11439;SDS011;5776;51.814;4.510;2023-02-28T08:18:21;2.00;;;1.70;;
11439;SDS011;5776;51.814;4.510;2023-02-28T08:20:48;3.30;;;2.30;;
11439;SDS011;5776;51.814;4.510;2023-02-28T08:23:15;3.93;;;2.33;;
11439;SDS011;5776;51.814;4.510;2023-02-28T08:25:40;4.53;;;2.07;;
11439;SDS011;5776;51.814;4.510;2023-02-28T08:28:06;5.33;;;2.30;;
11439;SDS011;5776;51.814;4.510;2023-02-28T08:30:32;5.43;;;2.40;;
11439;SDS011;5776;51.814;4.510;2023-02-28T08:32:58;3.93;;;2.50;;
11439;SDS011;5776;51.814;4.510;2023-02-28T08:35:24;4.30;;;2.10;;
11439;SDS011;5776;51.814;4.510;2023-02-28T08:37:50;3.93;;;2.73;;
11439;SDS011;5776;51.814;4.510;2023-02-28T08:40:16;3.33;;;2.47;;
11439;SDS011;5776;51.814;4.510;2023-02-28T08:42:44;3.27;;;2.60;;
11439;SDS011;5776;51.814;4.510;2023-02-28T08:45:11;4.80;;;2.50;;
11439;SDS011;5776;51.814;4.510;2023-02-28T08:47:37;4.53;;;2.90;;
11439;SDS011;5776;51.814;4.510;2023-02-28T08:50:04;6.27;;;2.63;;
11439;SDS011;5776;51.814;4.510;2023-02-28T08:52:30;5.23;;;2.87;;
11439;SDS011;5776;51.814;4.510;2023-02-28T08:54:56;5.70;;;2.87;;
11439;SDS011;5776;51.814;4.510;2023-02-28T08:57:22;4.83;;;2.77;;
11439;SDS011;5776;51.814;4.510;2023-02-28T08:59:48;6.50;;;2.83;;
11439;SDS011;5776;51.814;4.510;2023-02-28T09:02:14;3.47;;;2.50;;
11439;SDS011;5776;51.814;4.510;2023-02-28T09:04:40;4.00;;;2.27;;
11439;SDS011;5776;51.814;4.510;2023-02-28T09:07:07;4.87;;;3.00;;
11439;SDS011;5776;51.814;4.510;2023-02-28T09:09:33;2.70;;;2.07;;
11439;SDS011;5776;51.814;4.510;2023-02-28T09:11:59;5.37;;;2.77;;
11439;SDS011;5776;51.814;4.510;2023-02-28T09:14:25;5.00;;;2.40;;
11439;SDS011;5776;51.814;4.510;2023-02-28T09:16:51;3.70;;;2.00;;
11439;SDS011;5776;51.814;4.510;2023-02-28T09:19:17;3.90;;;2.10;;
11439;SDS011;5776;51.814;4.510;2023-02-28T09:21:42;3.77;;;2.33;;
11439;SDS011;5776;51.814;4.510;2023-02-28T09:24:08;4.47;;;2.13;;
11439;SDS011;5776;51.814;4.510;2023-02-28T09:26:36;2.53;;;1.67;;
11439;SDS011;5776;51.814;4.510;2023-02-28T09:29:03;3.37;;;2.40;;
11439;SDS011;5776;51.814;4.510;2023-02-28T09:31:29;4.30;;;2.20;;
11439;SDS011;5776;51.814;4.510;2023-02-28T09:33:56;5.33;;;2.43;;
11439;SDS011;5776;51.814;4.510;2023-02-28T09:36:23;4.30;;;2.20;;
11439;SDS011;5776;51.814;4.510;2023-02-28T09:38:50;1.73;;;1.33;;
11439;SDS011;5776;51.814;4.510;2023-02-28T09:41:23;4.00;;;1.57;;
11439;SDS011;5776;51.814;4.510;2023-02-28T09:43:57;3.87;;;1.50;;
11439;SDS011;5776;51.814;4.510;2023-02-28T09:46:32;4.20;;;2.00;;
11439;SDS011;5776;51.814;4.510;2023-02-28T09:49:14;2.50;;;1.60;;
11439;SDS011;5776;51.814;4.510;2023-02-28T09:54:21;1.97;;;1.33;;
11439;SDS011;5776;51.814;4.510;2023-02-28T09:56:49;2.80;;;1.80;;
11439;SDS011;5776;51.814;4.510;2023-02-28T10:02:01;3.20;;;1.90;;
11439;SDS011;5776;51.814;4.510;2023-02-28T10:04:45;2.37;;;1.93;;
11439;SDS011;5776;51.814;4.510;2023-02-28T10:12:59;4.60;;;1.80;;
11439;SDS011;5776;51.814;4.510;2023-02-28T10:15:29;3.97;;;1.90;;
11439;SDS011;5776;51.814;4.510;2023-02-28T10:17:58;2.90;;;1.67;;
11439;SDS011;5776;51.814;4.510;2023-02-28T10:20:29;2.83;;;2.10;;
11439;SDS011;5776;51.814;4.510;2023-02-28T10:23:03;3.43;;;1.70;;
11439;SDS011;5776;51.814;4.510;2023-02-28T10:25:43;3.10;;;1.70;;
11439;SDS011;5776;51.814;4.510;2023-02-28T10:28:16;3.83;;;1.97;;
11439;SDS011;5776;51.814;4.510;2023-02-28T10:30:50;2.67;;;1.80;;
11439;SDS011;5776;51.814;4.510;2023-02-28T10:33:19;2.43;;;1.67;;
11439;SDS011;5776;51.814;4.510;2023-02-28T10:35:48;2.53;;;1.63;;
11439;SDS011;5776;51.814;4.510;2023-02-28T10:38:16;6.30;;;2.00;;
11439;SDS011;5776;51.814;4.510;2023-02-28T10:40:45;3.30;;;1.63;;
11439;SDS011;5776;51.814;4.510;2023-02-28T10:45:39;5.90;;;2.17;;
11439;SDS011;5776;51.814;4.510;2023-02-28T10:55:40;2.20;;;1.07;;
11439;SDS011;5776;51.814;4.510;2023-02-28T10:58:20;1.23;;;1.00;;
11439;SDS011;5776;51.814;4.510;2023-02-28T11:00:50;1.20;;;1.10;;
11439;SDS011;5776;51.814;4.510;2023-02-28T11:03:25;0.97;;;0.60;;
11439;SDS011;5776;51.814;4.510;2023-02-28T11:05:55;1.53;;;1.17;;
11439;SDS011;5776;51.814;4.510;2023-02-28T11:08:22;1.30;;;0.80;;
11439;SDS011;5776;51.814;4.510;2023-02-28T11:10:53;2.50;;;1.60;;
11439;SDS011;5776;51.814;4.510;2023-02-28T11:13:26;2.90;;;1.27;;
11439;SDS011;5776;51.814;4.510;2023-02-28T11:15:57;1.20;;;1.10;;
11439;SDS011;5776;51.814;4.510;2023-02-28T11:18:29;5.53;;;1.53;;
11439;SDS011;5776;51.814;4.510;2023-02-28T11:20:58;1.83;;;0.97;;
11439;SDS011;5776;51.814;4.510;2023-02-28T11:23:27;2.93;;;1.00;;
11439;SDS011;5776;51.814;4.510;2023-02-28T11:25:56;1.63;;;1.10;;
11439;SDS011;5776;51.814;4.510;2023-02-28T11:28:35;1.10;;;1.00;;
11439;SDS011;5776;51.814;4.510;2023-02-28T11:33:46;2.50;;;1.27;;
11439;SDS011;5776;51.814;4.510;2023-02-28T11:36:17;1.73;;;1.30;;
11439;SDS011;5776;51.814;4.510;2023-02-28T11:38:51;1.50;;;1.20;;
11439;SDS011;5776;51.814;4.510;2023-02-28T11:47:00;5.63;;;1.57;;
11439;SDS011;5776;51.814;4.510;2023-02-28T11:52:36;3.03;;;1.17;;
11439;SDS011;5776;51.814;4.510;2023-02-28T11:55:14;2.33;;;1.40;;
11439;SDS011;5776;51.814;4.510;2023-02-28T12:00:43;2.00;;;1.20;;
11439;SDS011;5776;51.814;4.510;2023-02-28T12:06:04;1.90;;;1.53;;
11439;SDS011;5776;51.814;4.510;2023-02-28T12:26:12;1.53;;;1.07;;
11439;SDS011;5776;51.814;4.510;2023-02-28T12:28:46;3.13;;;1.13;;
11439;SDS011;5776;51.814;4.510;2023-02-28T12:33:52;1.63;;;1.40;;
11439;SDS011;5776;51.814;4.510;2023-02-28T12:36:22;1.20;;;1.10;;
11439;SDS011;5776;51.814;4.510;2023-02-28T12:41:28;1.57;;;1.10;;
11439;SDS011;5776;51.814;4.510;2023-02-28T12:43:57;1.60;;;1.30;;
11439;SDS011;5776;51.814;4.510;2023-02-28T12:46:46;1.53;;;1.43;;
11439;SDS011;5776;51.814;4.510;2023-02-28T12:49:22;2.77;;;0.97;;
11439;SDS011;5776;51.814;4.510;2023-02-28T12:51:52;1.50;;;1.37;;
11439;SDS011;5776;51.814;4.510;2023-02-28T12:54:25;1.07;;;0.97;;
11439;SDS011;5776;51.814;4.510;2023-02-28T12:57:06;2.33;;;1.27;;
11439;SDS011;5776;51.814;4.510;2023-02-28T13:08:34;0.70;;;0.67;;
11439;SDS011;5776;51.814;4.510;2023-02-28T13:19:37;1.43;;;1.17;;
11439;SDS011;5776;51.814;4.510;2023-02-28T13:22:05;1.80;;;1.20;;
11439;SDS011;5776;51.814;4.510;2023-02-28T13:24:44;1.70;;;1.30;;
11439;SDS011;5776;51.814;4.510;2023-02-28T13:29:59;2.10;;;1.10;;
11439;SDS011;5776;51.814;4.510;2023-02-28T13:47:41;1.50;;;1.17;;
11439;SDS011;5776;51.814;4.510;2023-02-28T14:05:05;2.47;;;1.60;;
11439;SDS011;5776;51.814;4.510;2023-02-28T14:07:04;2.93;;;1.60;;
11439;SDS011;5776;51.814;4.510;2023-02-28T14:11:57;3.80;;;1.13;;
11439;SDS011;5776;51.814;4.510;2023-02-28T14:17:01;6.03;;;1.37;;
11439;SDS011;5776;51.814;4.510;2023-02-28T14:19:30;3.40;;;1.63;;
11439;SDS011;5776;51.814;4.510;2023-02-28T14:36:10;5.30;;;1.43;;
11439;SDS011;5776;51.814;4.510;2023-02-28T14:38:56;1.10;;;0.80;;
11439;SDS011;5776;51.814;4.510;2023-02-28T14:41:30;1.83;;;1.10;;
11439;SDS011;5776;51.814;4.510;2023-02-28T14:46:46;1.80;;;1.30;;
11439;SDS011;5776;51.814;4.510;2023-02-28T14:49:19;1.80;;;1.30;;
11439;SDS011;5776;51.814;4.510;2023-02-28T14:51:49;1.83;;;1.07;;
11439;SDS011;5776;51.814;4.510;2023-02-28T14:54:27;3.90;;;1.57;;
11439;SDS011;5776;51.814;4.510;2023-02-28T14:56:54;1.63;;;0.70;;
11439;SDS011;5776;51.814;4.510;2023-02-28T14:59:24;2.57;;;1.53;;
11439;SDS011;5776;51.814;4.510;2023-02-28T15:01:52;1.47;;;1.27;;
11439;SDS011;5776;51.814;4.510;2023-02-28T15:04:39;3.67;;;1.53;;
11439;SDS011;5776;51.814;4.510;2023-02-28T15:07:08;4.23;;;1.80;;
11439;SDS011;5776;51.814;4.510;2023-02-28T15:09:40;3.37;;;2.07;;
11439;SDS011;5776;51.814;4.510;2023-02-28T15:12:06;2.90;;;1.30;;
11439;SDS011;5776;51.814;4.510;2023-02-28T15:14:33;2.60;;;1.67;;
11439;SDS011;5776;51.814;4.510;2023-02-28T15:17:05;3.73;;;1.47;;
11439;SDS011;5776;51.814;4.510;2023-02-28T15:19:37;5.10;;;1.70;;
11439;SDS011;5776;51.814;4.510;2023-02-28T15:22:14;3.07;;;1.50;;
11439;SDS011;5776;51.814;4.510;2023-02-28T15:24:47;4.00;;;1.30;;
11439;SDS011;5776;51.814;4.510;2023-02-28T15:27:27;3.87;;;1.60;;
11439;SDS011;5776;51.814;4.510;2023-02-28T15:29:57;2.40;;;1.60;;
11439;SDS011;5776;51.814;4.510;2023-02-28T15:34:56;2.83;;;1.57;;
11439;SDS011;5776;51.814;4.510;2023-02-28T15:40:04;2.93;;;1.73;;
11439;SDS011;5776;51.814;4.510;2023-02-28T15:42:36;2.53;;;1.80;;
11439;SDS011;5776;51.814;4.510;2023-02-28T15:45:02;5.73;;;1.53;;
11439;SDS011;5776;51.814;4.510;2023-02-28T15:47:29;6.13;;;1.50;;
11439;SDS011;5776;51.814;4.510;2023-02-28T15:50:08;3.87;;;1.83;;
11439;SDS011;5776;51.814;4.510;2023-02-28T15:52:40;1.50;;;1.40;;
11439;SDS011;5776;51.814;4.510;2023-02-28T15:55:17;2.50;;;1.60;;
11439;SDS011;5776;51.814;4.510;2023-02-28T15:57:48;3.73;;;1.70;;
11439;SDS011;5776;51.814;4.510;2023-02-28T16:00:22;1.60;;;1.50;;
11439;SDS011;5776;51.814;4.510;2023-02-28T16:02:50;1.70;;;1.30;;
11439;SDS011;5776;51.814;4.510;2023-02-28T16:05:21;2.00;;;1.30;;
11439;SDS011;5776;51.814;4.510;2023-02-28T16:07:57;2.10;;;1.47;;
11439;SDS011;5776;51.814;4.510;2023-02-28T16:10:25;1.73;;;1.53;;
11439;SDS011;5776;51.814;4.510;2023-02-28T16:12:55;3.30;;;1.87;;
11439;SDS011;5776;51.814;4.510;2023-02-28T16:17:53;2.03;;;1.50;;
11439;SDS011;5776;51.814;4.510;2023-02-28T16:20:21;2.77;;;1.70;;
11439;SDS011;5776;51.814;4.510;2023-02-28T16:22:49;1.67;;;1.50;;
11439;SDS011;5776;51.814;4.510;2023-02-28T16:25:17;2.23;;;1.50;;
11439;SDS011;5776;51.814;4.510;2023-02-28T16:27:45;1.50;;;1.40;;
11439;SDS011;5776;51.814;4.510;2023-02-28T16:30:24;3.57;;;1.37;;
11439;SDS011;5776;51.814;4.510;2023-02-28T16:32:51;2.10;;;1.53;;
11439;SDS011;5776;51.814;4.510;2023-02-28T16:35:19;2.67;;;1.63;;
11439;SDS011;5776;51.814;4.510;2023-02-28T16:37:46;4.43;;;1.90;;
11439;SDS011;5776;51.814;4.510;2023-02-28T16:40:16;5.23;;;1.47;;
11439;SDS011;5776;51.814;4.510;2023-02-28T16:42:48;3.23;;;1.40;;
11439;SDS011;5776;51.814;4.510;2023-02-28T16:45:20;2.60;;;1.77;;
11439;SDS011;5776;51.814;4.510;2023-02-28T16:47:48;2.07;;;1.57;;
11439;SDS011;5776;51.814;4.510;2023-02-28T16:50:24;3.13;;;2.20;;
11439;SDS011;5776;51.814;4.510;2023-02-28T16:52:55;4.20;;;1.40;;
11439;SDS011;5776;51.814;4.510;2023-02-28T16:55:22;2.77;;;1.97;;
11439;SDS011;5776;51.814;4.510;2023-02-28T16:57:50;2.30;;;1.00;;
11439;SDS011;5776;51.814;4.510;2023-02-28T17:00:19;5.53;;;1.60;;
11439;SDS011;5776;51.814;4.510;2023-02-28T17:02:46;3.47;;;2.00;;
11439;SDS011;5776;51.814;4.510;2023-02-28T17:05:12;4.20;;;1.67;;
11439;SDS011;5776;51.814;4.510;2023-02-28T17:07:38;2.63;;;1.30;;
11439;SDS011;5776;51.814;4.510;2023-02-28T17:10:13;3.00;;;1.47;;
11439;SDS011;5776;51.814;4.510;2023-02-28T17:12:43;2.53;;;1.67;;
11439;SDS011;5776;51.814;4.510;2023-02-28T17:15:10;2.63;;;1.93;;
11439;SDS011;5776;51.814;4.510;2023-02-28T17:17:37;1.53;;;1.40;;
11439;SDS011;5776;51.814;4.510;2023-02-28T17:20:04;4.20;;;2.50;;
11439;SDS011;5776;51.814;4.510;2023-02-28T17:22:31;4.83;;;2.30;;
11439;SDS011;5776;51.814;4.510;2023-02-28T17:24:57;4.67;;;2.60;;
11439;SDS011;5776;51.814;4.510;2023-02-28T17:27:24;3.03;;;2.47;;
11439;SDS011;5776;51.814;4.510;2023-02-28T17:29:50;3.53;;;2.20;;
11439;SDS011;5776;51.814;4.510;2023-02-28T17:32:16;3.77;;;2.33;;
11439;SDS011;5776;51.814;4.510;2023-02-28T17:34:43;3.80;;;2.47;;
11439;SDS011;5776;51.814;4.510;2023-02-28T17:37:09;3.90;;;2.70;;
11439;SDS011;5776;51.814;4.510;2023-02-28T17:39:35;2.80;;;2.30;;
11439;SDS011;5776;51.814;4.510;2023-02-28T17:42:01;6.57;;;2.57;;
11439;SDS011;5776;51.814;4.510;2023-02-28T17:44:27;5.37;;;2.93;;
11439;SDS011;5776;51.814;4.510;2023-02-28T17:46:53;5.50;;;2.63;;
11439;SDS011;5776;51.814;4.510;2023-02-28T17:49:20;4.30;;;2.77;;
11439;SDS011;5776;51.814;4.510;2023-02-28T17:51:47;4.40;;;2.40;;
11439;SDS011;5776;51.814;4.510;2023-02-28T17:54:13;3.43;;;2.50;;
11439;SDS011;5776;51.814;4.510;2023-02-28T17:56:39;3.67;;;2.17;;
11439;SDS011;5776;51.814;4.510;2023-02-28T17:59:06;6.10;;;2.60;;
11439;SDS011;5776;51.814;4.510;2023-02-28T18:01:34;3.60;;;2.30;;
11439;SDS011;5776;51.814;4.510;2023-02-28T18:04:00;3.20;;;2.30;;